createdAt,value
2024-03-28T00:00:12.798Z,71.75
2024-03-28T00:01:12.924Z,71.51
2024-03-28T00:02:13.103Z,71.95
2024-03-28T00:03:13.273Z,71.38
2024-03-28T00:04:13.450Z,71.70
2024-03-28T00:55:46.670Z,70.12
2024-03-28T00:56:18.681Z,69.89
2024-03-28T00:57:18.763Z,69.96
2024-03-28T00:58:18.907Z,69.96
2024-03-28T00:59:18.930Z,69.45
2024-03-28T01:00:19.034Z,69.01
2024-03-28T01:01:19.120Z,68.68
2024-03-28T01:02:19.227Z,68.57
2024-03-28T01:03:19.338Z,68.59
2024-03-28T01:04:19.431Z,68.53
2024-03-28T01:05:19.537Z,68.47
2024-03-28T01:06:19.646Z,68.54
2024-03-28T01:07:19.733Z,68.43
2024-03-28T01:08:19.833Z,68.39
2024-03-28T01:09:19.935Z,68.20
2024-03-28T01:10:20.037Z,68.20
2024-03-28T01:11:20.171Z,68.32
2024-03-28T01:12:20.289Z,68.25
2024-03-28T01:13:20.406Z,67.89
2024-03-28T01:14:20.563Z,67.41
2024-03-28T01:15:20.692Z,67.56
2024-03-28T01:16:20.875Z,67.87
2024-03-28T01:17:21.027Z,67.76
2024-03-28T01:18:21.179Z,67.99
2024-03-28T01:19:21.333Z,67.56
2024-03-28T01:20:21.496Z,67.67
2024-03-28T01:21:21.662Z,67.64
2024-03-28T01:22:21.827Z,67.51
2024-03-28T01:23:21.972Z,67.34
2024-03-28T01:24:22.104Z,67.43
2024-03-28T01:25:22.271Z,66.92
2024-03-28T01:26:22.441Z,67.10
2024-03-28T01:27:22.653Z,66.84
2024-03-28T01:28:22.722Z,66.92
2024-03-28T01:29:22.892Z,66.85
2024-03-28T01:30:23.039Z,66.98
2024-03-28T01:31:23.204Z,66.95
2024-03-28T01:32:23.463Z,66.81
2024-03-28T01:33:23.510Z,66.61
2024-03-28T01:34:23.670Z,66.81
2024-03-28T01:35:23.842Z,67.03
2024-03-28T01:36:23.994Z,67.40
2024-03-28T01:37:24.191Z,68.90
2024-03-28T01:38:24.297Z,69.67
2024-03-28T01:39:24.412Z,69.94
2024-03-28T01:40:24.537Z,70.49
2024-03-28T01:41:24.657Z,70.18
2024-03-28T01:42:24.837Z,69.71
2024-03-28T01:43:24.890Z,69.30
2024-03-28T01:44:25.032Z,69.07
2024-03-28T01:45:25.137Z,68.86
2024-03-28T01:46:40.216Z,68.82
2024-03-28T01:47:41.988Z,68.71
2024-03-28T01:48:25.421Z,68.69
2024-03-28T01:49:25.503Z,68.69
2024-03-28T01:50:25.562Z,68.21
2024-03-28T01:51:25.659Z,67.83
2024-03-28T01:52:25.730Z,68.23
2024-03-28T01:53:25.838Z,68.14
2024-03-28T01:54:25.901Z,68.07
2024-03-28T01:55:25.989Z,67.96
2024-03-28T01:56:26.068Z,67.76
2024-03-28T01:57:26.174Z,67.82
2024-03-28T01:58:26.254Z,67.57
2024-03-28T01:59:26.326Z,67.80
2024-03-28T02:00:26.408Z,67.39
2024-03-28T02:01:26.508Z,67.03
2024-03-28T02:02:26.586Z,67.22
2024-03-28T02:03:26.670Z,66.62
2024-03-28T02:04:26.755Z,67.09
2024-03-28T02:05:26.831Z,68.62
2024-03-28T02:06:26.922Z,68.03
2024-03-28T02:07:27.010Z,68.21
2024-03-28T02:08:27.105Z,67.29
2024-03-28T02:09:27.205Z,66.92
2024-03-28T02:10:27.293Z,66.01
2024-03-28T02:11:27.399Z,65.93
2024-03-28T02:12:28.050Z,66.19
2024-03-28T02:13:27.615Z,66.30
2024-03-28T02:14:27.721Z,66.41
2024-03-28T02:15:27.806Z,67.11
2024-03-28T02:16:27.884Z,66.93
2024-03-28T02:17:28.026Z,67.04
2024-03-28T02:18:28.100Z,66.82
2024-03-28T02:19:28.162Z,66.59
2024-03-28T02:20:28.254Z,66.36
2024-03-28T02:21:28.334Z,66.17
2024-03-28T02:22:28.467Z,66.24
2024-03-28T02:23:28.653Z,66.36
2024-03-28T02:24:28.773Z,66.18
2024-03-28T02:25:28.936Z,65.77
2024-03-28T02:26:29.073Z,66.14
2024-03-28T02:27:29.226Z,65.97
2024-03-28T02:28:29.389Z,67.11
2024-03-28T02:29:29.528Z,67.37
2024-03-28T02:30:29.698Z,67.45
2024-03-28T02:31:29.831Z,67.98
2024-03-28T02:32:29.996Z,67.71
2024-03-28T02:33:30.149Z,68.17
2024-03-28T02:34:30.295Z,67.22
2024-03-28T02:35:30.454Z,66.89
2024-03-28T02:36:30.630Z,66.43
2024-03-28T02:37:30.751Z,66.19
2024-03-28T02:38:30.874Z,66.29
2024-03-28T02:39:30.988Z,66.18
2024-03-28T02:40:31.104Z,66.54
2024-03-28T02:41:31.222Z,66.82
2024-03-28T02:42:32.046Z,67.12
2024-03-28T02:43:31.439Z,67.31
2024-03-28T02:44:31.589Z,67.58
2024-03-28T02:45:31.748Z,67.82
2024-03-28T02:46:32.095Z,67.75
2024-03-28T02:47:32.115Z,67.52
2024-03-28T02:48:32.277Z,67.40
2024-03-28T02:49:32.445Z,67.29
2024-03-28T02:50:32.583Z,67.33
2024-03-28T02:51:32.794Z,67.43
2024-03-28T02:52:32.886Z,67.32
2024-03-28T02:53:33.039Z,67.24
2024-03-28T02:54:33.212Z,67.27
2024-03-28T02:55:33.342Z,66.88
2024-03-28T02:56:33.458Z,66.22
2024-03-28T02:57:33.577Z,66.46
2024-03-28T02:58:33.725Z,66.70
2024-03-28T02:59:33.839Z,66.66
2024-03-28T03:00:33.960Z,66.60
2024-03-28T03:01:34.149Z,66.98
2024-03-28T03:02:34.337Z,67.55
2024-03-28T03:03:34.505Z,67.49
2024-03-28T03:04:34.651Z,67.16
2024-03-28T03:05:34.835Z,67.08
2024-03-28T03:06:34.990Z,67.06
2024-03-28T03:07:35.213Z,67.28
2024-03-28T03:08:35.298Z,68.34
2024-03-28T03:09:35.467Z,69.35
2024-03-28T03:10:35.638Z,68.57
2024-03-28T03:11:35.768Z,68.14
2024-03-28T03:12:35.923Z,67.93
2024-03-28T03:13:36.085Z,67.91
2024-03-28T03:14:36.242Z,67.83
2024-03-28T03:15:36.412Z,67.76
2024-03-28T03:16:36.560Z,67.62
2024-03-28T03:17:36.722Z,67.52
2024-03-28T03:18:36.910Z,67.47
2024-03-28T03:19:37.024Z,68.80
2024-03-28T03:20:37.179Z,70.75
2024-03-28T03:21:37.282Z,71.56
2024-03-28T03:22:37.410Z,71.55
2024-03-28T03:23:37.538Z,71.84
2024-03-28T03:24:37.659Z,72.08
2024-03-28T03:25:37.781Z,71.16
2024-03-28T03:26:37.898Z,70.67
2024-03-28T03:27:38.026Z,70.21
2024-03-28T03:28:38.166Z,69.92
2024-03-28T03:29:38.311Z,69.77
2024-03-28T03:30:38.443Z,69.45
2024-03-28T03:31:38.584Z,69.21
2024-03-28T03:32:38.729Z,69.16
2024-03-28T03:33:38.862Z,69.13
2024-03-28T03:34:39.011Z,69.09
2024-03-28T03:35:39.119Z,69.03
2024-03-28T03:36:39.240Z,69.00
2024-03-28T03:37:39.374Z,68.66
2024-03-28T03:38:39.497Z,68.88
2024-03-28T03:39:39.612Z,69.57
2024-03-28T03:40:39.734Z,69.62
2024-03-28T03:41:39.847Z,69.18
2024-03-28T03:42:39.982Z,69.12
2024-03-28T03:43:40.073Z,69.05
2024-03-28T03:44:40.201Z,68.97
2024-03-28T03:45:40.320Z,68.96
2024-03-28T03:46:40.453Z,68.65
2024-03-28T03:47:40.569Z,68.50
2024-03-28T03:48:40.696Z,68.99
2024-03-28T03:49:40.822Z,69.20
2024-03-28T03:50:40.962Z,68.93
2024-03-28T03:51:41.072Z,68.88
2024-03-28T03:52:41.184Z,68.78
2024-03-28T03:53:41.290Z,68.63
2024-03-28T03:54:41.400Z,68.37
2024-03-28T03:55:41.509Z,68.37
2024-03-28T03:56:41.604Z,68.10
2024-03-28T03:57:41.705Z,68.13
2024-03-28T03:58:41.801Z,67.74
2024-03-28T03:59:41.903Z,67.54
2024-03-28T04:00:42.005Z,67.29
2024-03-28T04:01:42.106Z,67.16
2024-03-28T04:02:42.204Z,67.12
2024-03-28T04:03:42.300Z,67.15
2024-03-28T04:04:42.410Z,67.81
2024-03-28T04:05:42.519Z,67.63
2024-03-28T04:06:42.614Z,67.15
2024-03-28T04:07:42.709Z,67.68
2024-03-28T04:08:42.799Z,67.84
2024-03-28T04:09:42.902Z,67.34
2024-03-28T04:10:42.998Z,67.33
2024-03-28T04:11:43.116Z,67.13
2024-03-28T04:12:43.181Z,66.72
2024-03-28T04:13:43.293Z,66.46
2024-03-28T04:14:46.828Z,66.39
2024-03-28T04:15:43.466Z,66.32
2024-03-28T04:16:43.555Z,66.55
2024-03-28T04:17:43.645Z,66.59
2024-03-28T04:18:43.721Z,66.43
2024-03-28T04:19:43.809Z,66.43
2024-03-28T04:20:43.874Z,66.51
2024-03-28T04:21:43.991Z,66.25
2024-03-28T04:22:44.060Z,66.04
2024-03-28T04:23:44.137Z,66.07
2024-03-28T04:24:44.225Z,65.97
2024-03-28T04:25:44.299Z,65.80
2024-03-28T04:26:44.393Z,65.81
2024-03-28T04:27:44.489Z,66.60
2024-03-28T04:28:44.553Z,66.64
2024-03-28T04:29:52.424Z,66.60
2024-03-28T04:30:44.738Z,66.47
2024-03-28T04:31:44.827Z,66.43
2024-03-28T04:32:44.909Z,66.41
2024-03-28T04:33:44.998Z,66.36
2024-03-28T04:34:45.084Z,66.26
2024-03-28T04:35:45.175Z,66.43
2024-03-28T04:36:45.270Z,66.44
2024-03-28T04:37:45.363Z,66.51
2024-03-28T04:38:45.464Z,66.57
2024-03-28T04:39:45.537Z,66.56
2024-03-28T04:40:45.626Z,67.37
2024-03-28T04:41:45.707Z,67.16
2024-03-28T04:42:45.783Z,67.38
2024-03-28T04:43:45.868Z,66.92
2024-03-28T04:44:45.952Z,66.83
2024-03-28T04:45:46.044Z,67.02
2024-03-28T04:46:46.132Z,66.91
2024-03-28T04:47:46.219Z,67.65
2024-03-28T04:48:46.287Z,67.18
2024-03-28T04:49:46.374Z,67.11
2024-03-28T04:50:46.472Z,67.09
2024-03-28T04:51:46.563Z,68.09
2024-03-28T04:52:46.652Z,67.57
2024-03-28T04:53:46.758Z,67.43
2024-03-28T04:54:46.848Z,67.35
2024-03-28T04:55:46.941Z,67.33
2024-03-28T04:56:47.027Z,67.36
2024-03-28T04:57:47.575Z,68.34
2024-03-28T04:58:47.231Z,68.03
2024-03-28T04:59:47.320Z,67.90
2024-03-28T05:00:47.404Z,67.85
2024-03-28T05:01:47.560Z,67.82
2024-03-28T05:02:47.731Z,67.58
2024-03-28T05:03:47.890Z,67.57
2024-03-28T05:04:48.076Z,67.73
2024-03-28T05:05:48.204Z,67.87
2024-03-28T05:06:55.617Z,68.02
2024-03-28T05:07:56.623Z,67.87
2024-03-28T05:08:56.657Z,67.77
2024-03-28T05:09:56.665Z,68.31
2024-03-28T05:10:56.705Z,67.96
2024-03-28T05:11:56.962Z,68.24
2024-03-28T05:12:56.735Z,67.89
2024-03-28T05:13:56.766Z,67.85
2024-03-28T05:14:56.785Z,68.01
2024-03-28T05:15:56.822Z,67.87
2024-03-28T05:16:56.822Z,68.10
2024-03-28T05:17:56.845Z,68.62
2024-03-28T05:18:56.860Z,68.28
2024-03-28T05:19:56.870Z,68.06
2024-03-28T05:20:56.894Z,68.08
2024-03-28T05:21:56.964Z,68.14
2024-03-28T05:22:56.939Z,68.07
2024-03-28T05:23:56.957Z,68.77
2024-03-28T05:24:57.250Z,68.36
2024-03-28T05:25:56.991Z,68.26
2024-03-28T05:26:56.998Z,68.26
2024-03-28T05:27:57.020Z,68.35
2024-03-28T05:28:57.038Z,68.37
2024-03-28T05:29:57.043Z,68.66
2024-03-28T05:30:57.069Z,69.37
2024-03-28T05:31:57.069Z,70.81
2024-03-28T05:32:57.083Z,70.60
2024-03-28T05:33:59.905Z,70.42
2024-03-28T05:34:57.113Z,71.98
2024-03-28T05:35:57.128Z,72.62
2024-03-28T05:36:57.148Z,72.07
2024-03-28T05:37:57.186Z,72.36
2024-03-28T05:38:57.176Z,73.43
2024-03-28T05:39:57.204Z,72.57
2024-03-28T05:40:57.226Z,71.96
2024-03-28T05:41:57.221Z,72.79
2024-03-28T05:42:57.232Z,74.59
2024-03-28T05:43:57.248Z,75.57
2024-03-28T05:44:57.276Z,74.06
2024-03-28T05:45:57.279Z,74.11
2024-03-28T05:46:57.294Z,74.50
2024-03-28T05:47:57.308Z,74.50
2024-03-28T05:48:57.319Z,76.74
2024-03-28T05:49:57.336Z,76.68
2024-03-28T05:50:57.353Z,75.57
2024-03-28T05:51:57.361Z,74.87
2024-03-28T05:52:57.384Z,73.90
2024-03-28T05:53:57.380Z,73.45
2024-03-28T05:54:57.390Z,72.40
2024-03-28T05:55:57.401Z,71.71
2024-03-28T05:56:57.427Z,71.25
2024-03-28T05:57:57.426Z,70.70
2024-03-28T05:58:57.418Z,70.09
2024-03-28T05:59:57.429Z,69.56
2024-03-28T06:00:57.430Z,68.33
2024-03-28T06:01:57.437Z,68.31
2024-03-28T06:02:57.457Z,69.25
2024-03-28T06:03:57.508Z,68.47
2024-03-28T06:04:57.559Z,69.44
2024-03-28T06:05:57.617Z,70.03
2024-03-28T06:06:57.664Z,71.49
2024-03-28T06:07:57.719Z,72.24
2024-03-28T06:08:57.783Z,72.76
2024-03-28T06:09:57.849Z,71.37
2024-03-28T06:10:57.903Z,71.01
2024-03-28T06:11:57.973Z,72.19
2024-03-28T06:12:58.060Z,71.31
2024-03-28T06:13:58.099Z,70.82
2024-03-28T06:14:58.157Z,70.28
2024-03-28T06:15:58.201Z,70.20
2024-03-28T06:16:58.256Z,69.42
2024-03-28T06:17:58.309Z,68.92
2024-03-28T06:18:58.356Z,68.24
2024-03-28T06:19:58.459Z,67.63
2024-03-28T06:20:58.463Z,68.54
2024-03-28T06:21:58.515Z,68.39
2024-03-28T06:22:58.565Z,68.06
2024-03-28T06:23:58.594Z,67.85
2024-03-28T06:24:58.622Z,67.06
2024-03-28T06:25:58.672Z,66.76
2024-03-28T06:26:58.717Z,66.49
2024-03-28T06:27:58.762Z,66.14
2024-03-28T06:28:58.841Z,65.84
2024-03-28T06:29:58.845Z,65.54
2024-03-28T06:30:58.866Z,65.14
2024-03-28T06:31:58.905Z,64.67
2024-03-28T06:32:58.943Z,64.78
2024-03-28T06:33:58.990Z,64.02
2024-03-28T06:34:59.677Z,63.27
2024-03-28T06:35:59.108Z,62.92
2024-03-28T06:36:59.165Z,63.00
2024-03-28T06:37:59.231Z,62.99
2024-03-28T06:38:59.290Z,62.95
2024-03-28T06:39:59.347Z,62.88
2024-03-28T06:40:59.403Z,62.82
2024-03-28T06:41:59.414Z,62.74
2024-03-28T06:42:59.458Z,62.54
2024-03-28T06:43:59.491Z,62.50
2024-03-28T06:44:59.527Z,62.31
2024-03-28T06:45:59.538Z,62.05
2024-03-28T06:46:59.549Z,61.53
2024-03-28T06:47:59.538Z,61.31
2024-03-28T06:48:59.551Z,61.24
2024-03-28T06:49:59.573Z,61.19
2024-03-28T06:50:59.571Z,61.39
2024-03-28T06:51:59.563Z,61.42
2024-03-28T06:52:59.574Z,61.56
2024-03-28T06:53:59.590Z,63.07
2024-03-28T06:54:59.582Z,63.51
2024-03-28T06:55:59.587Z,63.44
2024-03-28T06:56:59.597Z,63.19
2024-03-28T06:57:59.609Z,62.59
2024-03-28T06:58:59.590Z,62.78
2024-03-28T06:59:59.610Z,63.32
2024-03-28T07:00:59.684Z,63.94
2024-03-28T07:01:59.710Z,65.63
2024-03-28T07:02:59.746Z,66.09
2024-03-28T07:03:59.769Z,64.94
2024-03-28T07:04:59.794Z,64.15
2024-03-28T07:06:00.668Z,63.83
2024-03-28T07:06:59.816Z,63.99
2024-03-28T07:07:59.814Z,63.83
2024-03-28T07:08:59.800Z,63.43
2024-03-28T07:09:59.793Z,63.39
2024-03-28T07:10:59.788Z,62.97
2024-03-28T07:11:59.776Z,63.27
2024-03-28T07:12:59.783Z,62.90
2024-03-28T07:14:00.296Z,62.46
2024-03-28T07:14:59.768Z,61.78
2024-03-28T07:15:59.756Z,61.52
2024-03-28T07:16:59.772Z,61.53
2024-03-28T07:17:59.767Z,61.41
2024-03-28T07:18:59.760Z,61.35
2024-03-28T07:19:59.761Z,60.68
2024-03-28T07:20:59.759Z,60.30
2024-03-28T07:21:59.760Z,60.64
2024-03-28T07:22:59.750Z,60.89
2024-03-28T07:23:59.751Z,60.42
2024-03-28T07:24:59.743Z,60.50
2024-03-28T07:25:59.752Z,60.89
2024-03-28T07:26:59.755Z,61.07
2024-03-28T07:27:59.752Z,60.51
2024-03-28T07:29:03.730Z,59.50
2024-03-28T07:29:59.768Z,59.47
2024-03-28T07:30:59.772Z,60.73
2024-03-28T07:31:59.821Z,61.02
2024-03-28T07:32:59.908Z,61.05
2024-03-28T07:33:59.876Z,61.39
2024-03-28T07:34:59.935Z,60.43
2024-03-28T07:35:59.970Z,60.13
2024-03-28T07:37:00.042Z,58.91
2024-03-28T07:38:00.800Z,59.16
2024-03-28T07:39:00.183Z,59.67
2024-03-28T07:40:00.263Z,59.39
2024-03-28T07:41:00.322Z,58.72
2024-03-28T07:42:00.410Z,59.05
2024-03-28T07:43:00.408Z,59.85
2024-03-28T07:44:00.445Z,60.02
2024-03-28T07:45:00.485Z,59.91
2024-03-28T07:46:00.516Z,59.93
2024-03-28T07:47:00.507Z,59.76
2024-03-28T07:48:00.570Z,59.35
2024-03-28T07:49:00.612Z,56.96
2024-03-28T07:50:00.624Z,56.83
2024-03-28T07:51:00.631Z,58.21
2024-03-28T07:52:00.646Z,58.76
2024-03-28T07:53:00.675Z,58.32
2024-03-28T07:54:00.665Z,57.91
2024-03-28T07:55:00.656Z,58.57
2024-03-28T07:56:00.652Z,58.92
2024-03-28T07:57:00.647Z,58.16
2024-03-28T07:58:00.625Z,57.82
2024-03-28T07:59:00.622Z,57.27
2024-03-28T08:00:00.659Z,57.34
2024-03-28T08:01:00.608Z,57.87
2024-03-28T08:02:00.582Z,57.74
2024-03-28T08:03:00.595Z,58.55
2024-03-28T08:04:00.601Z,57.15
2024-03-28T08:05:00.584Z,56.21
2024-03-28T08:06:00.528Z,56.35
2024-03-28T08:07:00.522Z,56.21
2024-03-28T08:08:00.490Z,56.00
2024-03-28T08:09:00.478Z,55.93
2024-03-28T08:10:00.488Z,56.65
2024-03-28T08:11:00.503Z,55.60
2024-03-28T08:12:00.511Z,55.52
2024-03-28T08:13:00.532Z,53.92
2024-03-28T08:14:00.554Z,54.35
2024-03-28T08:15:00.562Z,54.35
2024-03-28T08:16:00.595Z,53.74
2024-03-28T08:17:00.609Z,53.12
2024-03-28T08:18:00.657Z,53.35
2024-03-28T08:19:00.663Z,53.14
2024-03-28T08:20:00.655Z,52.55
2024-03-28T08:21:00.710Z,51.90
2024-03-28T08:22:00.663Z,51.87
2024-03-28T08:23:00.650Z,52.09
2024-03-28T08:24:00.621Z,51.40
2024-03-28T08:25:00.626Z,51.70
2024-03-28T08:26:00.572Z,50.07
2024-03-28T08:27:00.544Z,49.56
2024-03-28T08:28:00.507Z,49.73
2024-03-28T08:29:00.503Z,49.82
2024-03-28T08:30:00.518Z,50.27
2024-03-28T08:31:00.503Z,50.81
2024-03-28T08:32:00.476Z,49.50
2024-03-28T08:33:00.460Z,49.59
2024-03-28T08:34:00.424Z,49.51
2024-03-28T08:35:00.410Z,48.58
2024-03-28T08:36:00.337Z,48.71
2024-03-28T08:37:00.316Z,47.49
2024-03-28T08:38:00.258Z,47.11
2024-03-28T08:39:00.239Z,48.07
2024-03-28T08:40:00.204Z,46.36
2024-03-28T08:41:00.163Z,45.81
2024-03-28T08:42:00.101Z,45.67
2024-03-28T08:43:03.308Z,45.70
2024-03-28T08:43:59.995Z,44.52
2024-03-28T08:44:59.930Z,44.01
2024-03-28T08:45:59.887Z,44.45
2024-03-28T08:46:59.809Z,43.86
2024-03-28T08:47:59.754Z,44.30
2024-03-28T08:49:00.408Z,44.93
2024-03-28T08:49:59.619Z,44.96
2024-03-28T08:50:59.559Z,44.47
2024-03-28T08:51:59.498Z,44.58
2024-03-28T08:52:59.449Z,44.40
2024-03-28T08:53:59.346Z,44.02
2024-03-28T08:54:59.283Z,44.06
2024-03-28T08:55:59.209Z,44.21
2024-03-28T08:56:59.149Z,43.80
2024-03-28T08:57:59.127Z,43.72
2024-03-28T08:58:59.017Z,43.77
2024-03-28T08:59:58.986Z,43.46
2024-03-28T09:00:58.862Z,43.31
2024-03-28T09:01:58.790Z,43.38
2024-03-28T09:02:58.715Z,43.41
2024-03-28T09:03:58.632Z,43.05
2024-03-28T09:04:58.557Z,43.19
2024-03-28T09:05:58.529Z,42.01
2024-03-28T09:06:58.522Z,42.09
2024-03-28T09:07:58.495Z,42.18
2024-03-28T09:08:58.494Z,41.91
2024-03-28T09:09:58.430Z,42.12
2024-03-28T09:10:58.372Z,41.76
2024-03-28T09:11:58.327Z,40.78
2024-03-28T09:12:58.299Z,41.25
2024-03-28T09:13:58.250Z,40.69
2024-03-28T09:14:58.176Z,40.05
2024-03-28T09:15:58.167Z,39.34
2024-03-28T09:16:58.135Z,39.58
2024-03-28T09:17:58.137Z,38.89
2024-03-28T09:18:58.089Z,38.84
2024-03-28T09:19:58.063Z,38.79
2024-03-28T09:20:58.041Z,38.80
2024-03-28T09:21:58.011Z,39.18
2024-03-28T09:22:57.916Z,38.14
2024-03-28T09:23:57.846Z,37.81
2024-03-28T09:24:57.794Z,37.57
2024-03-28T09:25:57.710Z,36.92
2024-03-28T09:26:57.625Z,37.78
2024-03-28T09:27:57.566Z,38.91
2024-03-28T09:28:57.478Z,38.28
2024-03-28T09:29:57.396Z,40.14
2024-03-28T09:30:57.324Z,38.10
2024-03-28T09:31:57.256Z,36.96
2024-03-28T09:32:57.199Z,37.64
2024-03-28T09:33:57.173Z,37.78
2024-03-28T09:34:57.096Z,36.88
2024-03-28T09:35:57.059Z,36.52
2024-03-28T09:36:57.014Z,36.58
2024-03-28T09:37:56.965Z,35.63
2024-03-28T09:38:56.925Z,35.77
2024-03-28T09:39:57.591Z,34.43
2024-03-28T09:40:56.982Z,35.00
2024-03-28T09:41:56.922Z,35.20
2024-03-28T09:42:56.905Z,36.96
2024-03-28T09:43:56.829Z,35.24
2024-03-28T09:44:56.787Z,35.18
2024-03-28T09:45:56.740Z,33.83
2024-03-28T09:46:58.699Z,34.44
2024-03-28T09:47:59.881Z,34.97
2024-03-28T09:48:56.458Z,35.08
2024-03-28T09:49:56.345Z,34.10
2024-03-28T09:50:56.254Z,33.62
2024-03-28T09:51:56.248Z,33.90
2024-03-28T09:52:56.045Z,33.76
2024-03-28T09:53:55.932Z,32.99
2024-03-28T09:54:55.829Z,32.82
2024-03-28T09:55:55.710Z,33.10
2024-03-28T09:57:01.606Z,32.66
2024-03-28T09:57:55.537Z,32.57
2024-03-28T09:58:55.818Z,33.29
2024-03-28T09:59:55.296Z,33.86
2024-03-28T10:00:55.175Z,34.15
2024-03-28T10:01:55.060Z,32.96
2024-03-28T10:02:54.944Z,32.41
2024-03-28T10:03:54.853Z,33.46
2024-03-28T10:04:54.746Z,32.81
2024-03-28T10:05:54.632Z,33.61
2024-03-28T10:06:54.553Z,34.48
2024-03-28T10:07:54.450Z,34.01
2024-03-28T10:08:54.329Z,34.16
2024-03-28T10:09:54.244Z,34.06
2024-03-28T10:10:54.129Z,33.96
2024-03-28T10:11:54.050Z,34.70
2024-03-28T10:12:53.930Z,35.52
2024-03-28T10:13:53.851Z,34.79
2024-03-28T10:14:53.735Z,35.28
2024-03-28T10:15:53.663Z,35.31
2024-03-28T10:16:53.606Z,35.42
2024-03-28T10:17:53.450Z,35.50
2024-03-28T10:18:53.332Z,35.84
2024-03-28T10:19:53.267Z,35.30
2024-03-28T10:20:53.196Z,35.50
2024-03-28T10:21:53.167Z,36.26
2024-03-28T10:22:53.139Z,36.48
2024-03-28T10:23:53.062Z,35.83
2024-03-28T10:24:53.021Z,35.40
2024-03-28T10:25:52.989Z,34.79
2024-03-28T10:26:52.950Z,33.89
2024-03-28T10:27:52.888Z,34.33
2024-03-28T10:28:52.838Z,33.78
2024-03-28T10:29:52.875Z,33.35
2024-03-28T10:30:52.784Z,33.49
2024-03-28T10:31:52.748Z,33.10
2024-03-28T10:32:52.695Z,33.94
2024-03-28T10:33:52.674Z,34.95
2024-03-28T10:34:52.630Z,35.63
2024-03-28T10:35:52.579Z,35.78
2024-03-28T10:36:52.508Z,36.54
2024-03-28T10:37:56.760Z,36.99
2024-03-28T10:38:52.375Z,35.86
2024-03-28T10:39:52.287Z,36.34
2024-03-28T10:40:52.277Z,36.30
2024-03-28T10:41:52.134Z,35.36
2024-03-28T10:42:52.075Z,36.00
2024-03-28T10:43:51.998Z,35.46
2024-03-28T10:44:51.931Z,35.49
2024-03-28T10:45:51.876Z,34.40
2024-03-28T10:46:51.786Z,33.69
2024-03-28T10:47:51.700Z,33.66
2024-03-28T10:48:51.612Z,34.05
2024-03-28T10:49:51.665Z,34.75
2024-03-28T10:50:51.442Z,35.56
2024-03-28T10:51:51.657Z,35.29
2024-03-28T10:52:51.288Z,34.45
2024-03-28T10:53:51.210Z,34.26
2024-03-28T10:54:51.130Z,35.04
2024-03-28T10:55:51.049Z,35.36
2024-03-28T10:56:50.966Z,34.80
2024-03-28T10:57:50.898Z,34.10
2024-03-28T10:58:50.810Z,34.41
2024-03-28T10:59:50.732Z,34.27
2024-03-28T11:00:53.293Z,34.44
2024-03-28T11:01:50.560Z,34.38
2024-03-28T11:02:50.478Z,34.27
2024-03-28T11:03:50.370Z,34.35
2024-03-28T11:04:50.279Z,34.09
2024-03-28T11:05:50.188Z,34.27
2024-03-28T11:06:50.119Z,34.28
2024-03-28T11:07:50.012Z,33.88
2024-03-28T11:08:49.933Z,33.92
2024-03-28T11:09:49.822Z,32.97
2024-03-28T11:10:49.724Z,32.41
2024-03-28T11:11:49.636Z,32.71
2024-03-28T11:12:49.559Z,32.41
2024-03-28T11:13:51.323Z,33.52
2024-03-28T11:14:49.342Z,33.61
2024-03-28T11:15:49.254Z,33.40
2024-03-28T11:16:49.127Z,33.31
2024-03-28T11:17:49.046Z,34.04
2024-03-28T11:18:48.931Z,34.52
2024-03-28T11:19:48.838Z,34.98
2024-03-28T11:20:48.735Z,36.11
2024-03-28T11:21:48.612Z,35.19
2024-03-28T11:22:48.522Z,34.68
2024-03-28T11:23:48.408Z,34.42
2024-03-28T11:24:48.302Z,34.13
2024-03-28T11:25:48.206Z,34.22
2024-03-28T11:26:48.105Z,34.25
2024-03-28T11:27:48.001Z,34.30
2024-03-28T11:28:47.884Z,35.53
2024-03-28T11:29:47.792Z,35.94
2024-03-28T11:30:47.676Z,34.47
2024-03-28T11:31:47.560Z,34.25
2024-03-28T11:32:47.500Z,34.66
2024-03-28T11:33:47.441Z,33.55
2024-03-28T11:34:47.252Z,33.12
2024-03-28T11:35:47.122Z,32.84
2024-03-28T11:36:47.018Z,31.80
2024-03-28T11:37:46.925Z,31.27
2024-03-28T11:38:46.816Z,31.58
2024-03-28T11:39:46.710Z,32.51
2024-03-28T11:40:46.607Z,31.50
2024-03-28T11:41:46.504Z,30.96
2024-03-28T11:42:47.028Z,31.68
2024-03-28T11:43:46.343Z,34.27
2024-03-28T11:44:46.226Z,33.45
2024-03-28T11:45:46.170Z,34.63
2024-03-28T11:46:46.120Z,35.39
2024-03-28T11:47:46.063Z,37.52
2024-03-28T11:48:46.013Z,38.84
2024-03-28T11:49:45.968Z,38.63
2024-03-28T11:50:45.899Z,40.15
2024-03-28T11:51:45.847Z,41.04
2024-03-28T11:52:45.840Z,42.58
2024-03-28T11:53:56.847Z,43.96
2024-03-28T11:54:45.825Z,44.37
2024-03-28T11:55:45.811Z,43.89
2024-03-28T11:56:45.822Z,45.05
2024-03-28T11:57:45.808Z,45.44
2024-03-28T11:58:45.791Z,44.57
2024-03-28T11:59:45.797Z,45.37
2024-03-28T12:00:45.784Z,45.56
2024-03-28T12:01:45.804Z,45.71
2024-03-28T12:02:45.774Z,46.99
2024-03-28T12:03:45.768Z,47.54
2024-03-28T12:04:45.755Z,48.11
2024-03-28T12:05:45.782Z,48.80
2024-03-28T12:06:45.769Z,49.22
2024-03-28T12:07:45.801Z,48.97
2024-03-28T12:08:45.797Z,48.15
2024-03-28T12:09:45.809Z,48.36
2024-03-28T12:10:45.846Z,48.92
2024-03-28T12:11:45.830Z,49.58
2024-03-28T12:12:45.844Z,49.01
2024-03-28T12:13:45.875Z,49.07
2024-03-28T12:14:46.707Z,49.77
2024-03-28T12:15:45.878Z,49.99
2024-03-28T12:16:45.883Z,50.05
2024-03-28T12:17:45.914Z,50.55
2024-03-28T12:18:45.929Z,51.13
2024-03-28T12:19:45.956Z,50.39
2024-03-28T12:20:45.973Z,49.96
2024-03-28T12:21:46.018Z,50.34
2024-03-28T12:22:46.037Z,50.76
2024-03-28T12:23:46.046Z,51.09
2024-03-28T12:24:46.104Z,50.32
2024-03-28T12:25:46.096Z,50.44
2024-03-28T12:26:46.115Z,50.58
2024-03-28T12:27:46.155Z,51.28
2024-03-28T12:28:46.179Z,51.61
2024-03-28T12:29:46.218Z,51.95
2024-03-28T12:30:46.279Z,51.62
2024-03-28T12:31:46.370Z,52.25
2024-03-28T12:32:46.413Z,53.43
2024-03-28T12:33:46.518Z,53.56
2024-03-28T12:34:46.600Z,53.59
2024-03-28T12:35:46.645Z,53.65
2024-03-28T12:36:46.748Z,53.52
2024-03-28T12:37:46.828Z,54.77
2024-03-28T12:38:46.937Z,54.91
2024-03-28T12:39:47.001Z,54.81
2024-03-28T12:40:47.147Z,55.95
2024-03-28T12:41:47.183Z,55.81
2024-03-28T12:42:49.508Z,55.84
2024-03-28T12:43:47.283Z,55.73
2024-03-28T12:44:47.330Z,55.99
2024-03-28T12:45:47.381Z,57.61
2024-03-28T12:46:47.419Z,57.88
2024-03-28T12:47:47.453Z,57.47
2024-03-28T12:48:47.498Z,57.71
2024-03-28T12:49:47.630Z,57.69
2024-03-28T12:50:47.640Z,57.70
2024-03-28T12:51:47.663Z,58.09
2024-03-28T12:52:48.110Z,57.73
2024-03-28T12:53:47.833Z,58.13
2024-03-28T12:54:47.862Z,57.43
2024-03-28T12:55:47.932Z,57.45
2024-03-28T12:56:47.991Z,56.85
2024-03-28T12:57:48.083Z,57.54
2024-03-28T12:58:48.213Z,57.37
2024-03-28T12:59:48.262Z,57.55
2024-03-28T13:00:48.330Z,57.97
2024-03-28T13:01:48.420Z,57.07
2024-03-28T13:02:48.506Z,56.45
2024-03-28T13:03:48.563Z,56.80
2024-03-28T13:04:48.614Z,58.46
2024-03-28T13:05:48.690Z,59.36
2024-03-28T13:06:54.393Z,61.13
2024-03-28T13:07:48.870Z,60.09
2024-03-28T13:08:48.927Z,60.31
2024-03-28T13:09:49.036Z,59.85
2024-03-28T13:10:49.066Z,59.99
2024-03-28T13:11:51.263Z,58.86
2024-03-28T13:12:49.130Z,59.31
2024-03-28T13:13:49.165Z,59.18
2024-03-28T13:14:49.184Z,59.92
2024-03-28T13:15:49.213Z,58.87
2024-03-28T13:16:49.252Z,58.16
2024-03-28T13:17:49.295Z,59.62
2024-03-28T13:18:49.331Z,59.57
2024-03-28T13:19:49.368Z,58.22
2024-03-28T13:20:49.411Z,57.84
2024-03-28T13:21:49.451Z,57.67
2024-03-28T13:22:49.522Z,58.71
2024-03-28T13:23:49.529Z,58.98
2024-03-28T13:24:49.585Z,58.55
2024-03-28T13:26:01.328Z,57.99
2024-03-28T13:27:17.071Z,57.76
2024-03-28T13:27:49.719Z,60.05
2024-03-28T13:28:49.739Z,59.52
2024-03-28T13:29:49.820Z,60.45
2024-03-28T13:30:49.845Z,59.94
2024-03-28T13:31:49.915Z,60.10
2024-03-28T13:32:50.029Z,60.10
2024-03-28T13:33:50.025Z,58.93
2024-03-28T13:34:50.094Z,59.05
2024-03-28T13:35:50.141Z,57.83
2024-03-28T13:36:50.176Z,60.41
2024-03-28T13:37:50.223Z,59.57
2024-03-28T13:38:50.261Z,59.60
2024-03-28T13:39:50.319Z,59.79
2024-03-28T13:40:50.364Z,60.58
2024-03-28T13:41:50.436Z,60.24
2024-03-28T13:42:50.475Z,60.85